^^
Grace C. Lehan Memorial Weather Station Historical Data
Daily Summary for January 22, 2021 Units:  English    Metric   Both
Daily Weekly Monthly Yearly
  High: Low: Average:
Temperature: 75.9 °F 69.1 °F 72.6 °F
Dew Point: 72.5 °F 68.2 °F 70.8 °F
Humidity: 97% 88.9% 94%
Wind Speed: 12.7mph 0mph 2.6mph
Wind Gust: 30mph - -
Wind- - West
Pressure: 29.87 in 29.51 in -
Precipitation: 2.28 in    
 
 
Tabular Data for January 22, 2021
Time Temperature Dew Point Pressure Wind Wind Speed Wind Gust Humidity Rainfall Rate (Hourly) solar
00:04 75.9 °F 72.4 °F 29.87 in Calm   4 mph 88.9% 0.00 in 0 W/m2
00:09 75.8 °F 72.3 °F 29.87 in Calm   1 mph 89% 0.00 in 0 W/m2
00:14 75.7 °F 72.5 °F 29.87 in Calm   1 mph 89.7% 0.00 in 0 W/m2
00:19 75.7 °F 72.5 °F 29.87 in ESE 0.1 mph 2 mph 90% 0.00 in 0 W/m2
00:24 75.6 °F 72.5 °F 29.87 in Calm   2 mph 90% 0.00 in 0 W/m2
00:29 75.5 °F 72.4 °F 29.86 in Calm   2 mph 90% 0.00 in 0 W/m2
00:34 75.4 °F 72.3 °F 29.86 in Calm   2 mph 90% 0.00 in 0 W/m2
00:39 75.3 °F 72.2 °F 29.86 in Calm   1 mph 90% 0.00 in 0 W/m2
00:44 75.2 °F 72.1 °F 29.86 in Calm   1 mph 90% 0.00 in 0 W/m2
00:49 75.1 °F 72.1 °F 29.86 in ESE 0.1 mph 2 mph 90.1% 0.00 in 0 W/m2
00:54 75.1 °F 72.3 °F 29.86 in Calm   2 mph 91% 0.00 in 0 W/m2
00:59 75 °F 72.2 °F 29.86 in Calm   2 mph 91% 0.00 in 0 W/m2
01:04 74.9 °F 72.1 °F 29.85 in Calm   2 mph 91% 0.00 in 0 W/m2
01:09 74.8 °F 72 °F 29.85 in Calm     91% 0.00 in 0 W/m2
01:14 74.8 °F 72 °F 29.85 in Calm     91% 0.00 in 0 W/m2
01:19 74.7 °F 71.9 °F 29.85 in Calm   2 mph 91% 0.00 in 0 W/m2
01:24 74.6 °F 71.8 °F 29.85 in Calm   2 mph 91% 0.00 in 0 W/m2
01:29 74.5 °F 71.7 °F 29.85 in Calm   2 mph 91% 0.00 in 0 W/m2
01:34 74.5 °F 71.7 °F 29.85 in ESE 0.2 mph 2 mph 91% 0.00 in 0 W/m2
01:39 74.4 °F 71.9 °F 29.85 in ESE 0.1 mph 2 mph 91.9% 0.00 in 0 W/m2
01:44 74.3 °F 71.8 °F 29.85 in ESE 0.1 mph 2 mph 92% 0.00 in 0 W/m2
01:49 74.3 °F 71.8 °F 29.85 in Calm   2 mph 92% 0.00 in 0 W/m2
01:54 74.3 °F 71.8 °F 29.85 in Calm   2 mph 92% 0.00 in 0 W/m2
01:59 74.2 °F 71.7 °F 29.85 in Calm   2 mph 92% 0.00 in 0 W/m2
02:04 74.2 °F 71.7 °F 29.85 in Calm   2 mph 92% 0.00 in 0 W/m2
02:09 74.2 °F 72 °F 29.85 in Calm   1 mph 92.8% 0.00 in 0 W/m2
02:14 74.3 °F 72.1 °F 29.85 in Calm   1 mph 93% 0.00 in 0 W/m2
02:19 74.3 °F 72.1 °F 29.85 in Calm   1 mph 93% 0.00 in 0 W/m2
02:24 74.3 °F 72.2 °F 29.85 in Calm   1 mph 93% 0.00 in 0 W/m2
02:29 74.3 °F 72.2 °F 29.85 in Calm   1 mph 93% 0.00 in 0 W/m2
02:34 74.3 °F 72.2 °F 29.85 in Calm   1 mph 93% 0.00 in 0 W/m2
02:39 74.3 °F 72.2 °F 29.85 in Calm   1 mph 93% 0.00 in 0 W/m2
02:44 74.3 °F 72.2 °F 29.85 in Calm   1 mph 93% 0.00 in 0 W/m2
02:49 74.3 °F 72.2 °F 29.85 in ESE 0.2 mph 3 mph 93% 0.00 in 0 W/m2
02:54 74.4 °F 72 °F 29.85 in East 0.2 mph 3 mph 92.1% 0.00 in 0 W/m2
02:59 74.4 °F 71.9 °F 29.85 in NNW 0.4 mph 4 mph 92% 0.00 in 0 W/m2
03:04 74.4 °F 71.9 °F 29.85 in NNE 0.2 mph 4 mph 92% 0.00 in 0 W/m2
03:09 74.4 °F 71.9 °F 29.85 in NE 0.2 mph 3 mph 92% 0.00 in 0 W/m2
03:14 74.4 °F 71.9 °F 29.84 in NE 0.1 mph 3 mph 92% 0.00 in 0 W/m2
03:19 74.4 °F 71.9 °F 29.84 in Calm   3 mph 92% 0.00 in 0 W/m2
03:24 74.4 °F 71.9 °F 29.84 in Calm   3 mph 92% 0.00 in 0 W/m2
03:29 74.4 °F 71.9 °F 29.84 in Calm   3 mph 92% 0.00 in 0 W/m2
03:34 74.4 °F 71.9 °F 29.84 in Calm   3 mph 92% 0.00 in 0 W/m2
03:39 74.4 °F 71.9 °F 29.83 in Calm   1 mph 92% 0.00 in 0 W/m2
03:44 74.4 °F 71.9 °F 29.83 in Calm   1 mph 92% 0.00 in 0 W/m2
03:49 74.4 °F 71.9 °F 29.83 in NNE 0.1 mph 3 mph 92% 0.00 in 0 W/m2
03:54 74.4 °F 71.9 °F 29.83 in North 0.4 mph 5 mph 92% 0.00 in 0 W/m2
03:59 74.4 °F 71.9 °F 29.83 in NE 0.1 mph 5 mph 92% 0.00 in 0 W/m2
04:09 74.5 °F 72 °F 29.82 in Calm   2 mph 92% 0.00 in 0 W/m2
04:14 74.5 °F 72 °F 29.82 in NNW 0.2 mph 5 mph 92% 0.00 in 0 W/m2
04:19 74.5 °F 72 °F 29.82 in NW 0.4 mph 5 mph 92% 0.00 in 0 W/m2
04:24 74.6 °F 72.1 °F 29.82 in NW 0.1 mph 5 mph 92% 0.00 in 0 W/m2
04:29 74.6 °F 72.1 °F 29.82 in Calm   5 mph 92% 0.00 in 0 W/m2
04:34 74.6 °F 72.1 °F 29.82 in NE 0.1 mph 5 mph 92% 0.00 in 0 W/m2
04:39 74.7 °F 72.2 °F 29.82 in NE 0.2 mph 3 mph 92% 0.00 in 0 W/m2
04:44 74.7 °F 72.2 °F 29.82 in NNW 0.7 mph 6 mph 91.8% 0.00 in 0 W/m2
04:49 74.7 °F 71.9 °F 29.81 in NNW 0.1 mph 6 mph 91% 0.00 in 0 W/m2
04:54 74.8 °F 72 °F 29.81 in NE 0.5 mph 6 mph 91% 0.00 in 0 W/m2
04:59 74.8 °F 72 °F 29.81 in NE 0.1 mph 6 mph 91% 0.00 in 0 W/m2
05:04 74.8 °F 72 °F 29.81 in NE 0.1 mph 6 mph 91% 0.00 in 0 W/m2
05:09 74.8 °F 72 °F 29.81 in NE 1 mph 6 mph 91% 0.00 in 0 W/m2
05:14 74.8 °F 72 °F 29.81 in NE 0.1 mph 6 mph 91% 0.00 in 0 W/m2
05:19 74.9 °F 72.1 °F 29.81 in NE 0.6 mph 7 mph 91% 0.00 in 0 W/m2
05:24 74.9 °F 71.9 °F 29.81 in NNW 1 mph 7 mph 90.3% 0.00 in 0 W/m2
05:29 74.9 °F 71.8 °F 29.81 in North 1.4 mph 9 mph 90% 0.00 in 0 W/m2
05:34 74.9 °F 71.8 °F 29.81 in NE 1.1 mph 9 mph 90% 0.00 in 0 W/m2
05:39 74.9 °F 71.8 °F 29.81 in ENE 1.6 mph 9 mph 90% 0.00 in 0 W/m2
05:44 75 °F 71.8 °F 29.81 in NE 1.9 mph 12 mph 90% 0.00 in 0 W/m2
05:49 75 °F 71.9 °F 29.80 in NE 1 mph 12 mph 90% 0.00 in 0 W/m2
05:54 75 °F 71.5 °F 29.79 in NE 0.4 mph 12 mph 89.1% 0.00 in 0 W/m2
05:59 74.9 °F 71.4 °F 29.79 in ENE 1.1 mph 12 mph 89% 0.00 in 0 W/m2
06:04 74.9 °F 71.4 °F 29.80 in NE 0.3 mph 12 mph 89% 0.00 in 0 W/m2
06:09 74.9 °F 71.6 °F 29.80 in NNW 0.7 mph 6 mph 89.4% 0.00 in 0 W/m2
06:14 74.8 °F 71.4 °F 29.79 in North 2.3 mph 12 mph 89.3% 0.00 in 0 W/m2
06:19 74.7 °F 71.3 °F 29.79 in NW 2.4 mph 12 mph 89% 0.00 in 0 W/m2
06:24 74.6 °F 71.2 °F 29.79 in NNW 2.4 mph 14 mph 89% 0.00 in 5 W/m2
06:29 74.6 °F 71.2 °F 29.79 in NNW 2.6 mph 14 mph 89% 0.00 in 5 W/m2
06:34 74.6 °F 71.1 °F 29.80 in NNW 1.1 mph 14 mph 89% 0.00 in 5 W/m2
06:39 74.5 °F 71.4 °F 29.80 in NNW 1.5 mph 7 mph 90% 0.00 in 9 W/m2
06:44 74.4 °F 71.3 °F 29.79 in NW 1.9 mph 10 mph 90% 0.00 in 12 W/m2
06:49 74.3 °F 71.2 °F 29.79 in NNW 1.5 mph 10 mph 90.2% 0.00 in 12 W/m2
06:54 74.1 °F 71.3 °F 29.78 in NNW 1.1 mph 10 mph 91% 0.00 in 11 W/m2
06:59 74 °F 71.2 °F 29.79 in NNE 0.7 mph 10 mph 91% 0.01 in 12 W/m2
07:04 73.9 °F 71.1 °F 29.79 in NNW 2.2 mph 10 mph 91% 0.01 in 14 W/m2
07:09 73.9 °F 71.1 °F 29.78 in NNW 3.7 mph 15 mph 91% 0.01 in 25 W/m2
07:14 73.8 °F 71 °F 29.78 in North 1.9 mph 15 mph 91% 0.01 in 25 W/m2
07:19 73.8 °F 71.3 °F 29.78 in NNW 1.8 mph 15 mph 91.8% 0.01 in 23 W/m2
07:24 73.8 °F 71.2 °F 29.78 in North 0.9 mph 15 mph 91.6% 0.01 in 21 W/m2
07:29 73.8 °F 71.3 °F 29.78 in NW 1 mph 15 mph 91.8% 0.01 in 19 W/m2
07:34 73.8 °F 71 °F 29.78 in NNW 1.1 mph 15 mph 91% 0.01 in 18 W/m2
07:39 73.8 °F 71 °F 29.78 in North 2.4 mph 13 mph 91% 0.01 in 18 W/m2
07:44 73.8 °F 71 °F 29.78 in NNW 3.9 mph 15 mph 91% 0.01 in 18 W/m2
07:49 73.7 °F 70.9 °F 29.78 in NNW 2.9 mph 15 mph 91% 0.01 in 18 W/m2
07:54 73.7 °F 70.9 °F 29.77 in NW 2.5 mph 15 mph 91% 0.02 in 16 W/m2
07:59 73.6 °F 70.8 °F 29.77 in NNW 2.7 mph 15 mph 91% 0.02 in 16 W/m2
08:00 73.6 °F 70.8 °F 29.77 in NNW 5 mph 15 mph 91% 0.02 in 12 W/m2
08:09 73.5 °F 71 °F 29.77 in NNW 3.4 mph 11 mph 92% 0.05 in 39 W/m2
08:14 73.3 °F 70.9 °F 29.77 in NW 0.9 mph 11 mph 92% 0.06 in 39 W/m2
08:19 73.2 °F 70.7 °F 29.77 in NNW 5.4 mph 15 mph 92% 0.06 in 14 W/m2
08:24 73 °F 70.5 °F 29.76 in North 2.6 mph 15 mph 92% 0.07 in 11 W/m2
08:29 72.8 °F 70.7 °F 29.76 in NNW 2.2 mph 15 mph 92.9% 0.10 in 12 W/m2
08:34 72.7 °F 70.5 °F 29.76 in NW 2.4 mph 15 mph 93% 0.10 in 12 W/m2
08:39 72.5 °F 70.4 °F 29.76 in North 2.1 mph 14 mph 93% 0.11 in 19 W/m2
08:44 72.4 °F 70.3 °F 29.76 in NW 3 mph 17 mph 93% 0.13 in 23 W/m2
08:49 72.4 °F 70.3 °F 29.76 in NNW 3.5 mph 17 mph 93.1% 0.13 in 30 W/m2
08:54 72.2 °F 70.4 °F 29.76 in NW 3.9 mph 17 mph 94% 0.15 in 47 W/m2
08:59 72.2 °F 70.4 °F 29.75 in NNW 3.8 mph 17 mph 94% 0.15 in 46 W/m2
09:04 72.1 °F 70.3 °F 29.75 in NNW 2.4 mph 17 mph 94% 0.17 in 65 W/m2
09:09 72.1 °F 70.3 °F 29.76 in NNW 1.7 mph 10 mph 94% 0.19 in 113 W/m2
09:14 72.2 °F 70.4 °F 29.75 in North 2.9 mph 14 mph 94% 0.20 in 141 W/m2
09:19 72.3 °F 70.5 °F 29.75 in NNW 2.3 mph 14 mph 94% 0.20 in 109 W/m2
09:24 72.3 °F 70.4 °F 29.75 in NW 2.5 mph 14 mph 94% 0.21 in 79 W/m2
09:29 72.2 °F 70.4 °F 29.75 in NW 4.6 mph 15 mph 94% 0.21 in 142 W/m2
09:34 72.2 °F 70.7 °F 29.74 in NNW 2.9 mph 15 mph 94.9% 0.21 in 142 W/m2
09:39 72.3 °F 70.8 °F 29.74 in NNW 3.8 mph 16 mph 95% 0.12 in 139 W/m2
09:44 72.3 °F 70.8 °F 29.74 in NW 6.5 mph 18 mph 95% 0.12 in 234 W/m2
09:49 72.4 °F 70.9 °F 29.73 in NNW 5.2 mph 18 mph 95% 0.13 in 213 W/m2
09:54 72.4 °F 70.9 °F 29.73 in NW 5.2 mph 18 mph 95% 0.13 in 144 W/m2
09:59 72.5 °F 71 °F 29.73 in NNW 3.4 mph 18 mph 95% 0.13 in 202 W/m2
10:04 72.6 °F 71 °F 29.73 in NNW 7.3 mph 18 mph 95% 0.13 in 167 W/m2
10:09 72.5 °F 70.9 °F 29.73 in NW 5.6 mph 17 mph 94.7% 0.08 in 167 W/m2
10:14 72.5 °F 70.7 °F 29.73 in NW 5.8 mph 19 mph 94.2% 0.08 in 104 W/m2
10:19 72.4 °F 70.6 °F 29.72 in NNW 4.6 mph 19 mph 94% 0.08 in 169 W/m2
10:24 72.5 °F 70.6 °F 29.72 in NNW 3.6 mph 19 mph 94% 0.08 in 192 W/m2
10:29 72.6 °F 70.8 °F 29.71 in NNW 5.2 mph 20 mph 94% 0.08 in 125 W/m2
10:34 72.5 °F 70.7 °F 29.70 in NW 6.9 mph 20 mph 94% 0.08 in 123 W/m2
10:39 72.5 °F 70.7 °F 29.70 in NW 8.3 mph 20 mph 94% 0.01 in 88 W/m2
10:44 72.4 °F 70.6 °F 29.70 in NNW 4.3 mph 20 mph 94% 0.01 in 51 W/m2
10:49 72.4 °F 70.5 °F 29.70 in NNW 5.3 mph 24 mph 94% 0.01 in 42 W/m2
10:54 72.3 °F 70.4 °F 29.69 in NW 8.6 mph 24 mph 93.8% 0.01 in 37 W/m2
10:59 72.2 °F 70.1 °F 29.70 in NNW 4.6 mph 24 mph 93% 0.01 in 40 W/m2
11:04 72.2 °F 70.1 °F 29.69 in NNW 7 mph 24 mph 93% 0.01 in 40 W/m2
11:09 72.3 °F 70.1 °F 29.69 in NNW 7.7 mph 23 mph 93% 0.00 in 28 W/m2
11:14 72.2 °F 70.1 °F 29.69 in NNW 6.2 mph 23 mph 93% 0.01 in 40 W/m2
11:19 72.2 °F 70.1 °F 29.69 in NNW 6 mph 23 mph 93.3% 0.02 in 35 W/m2
11:24 72.1 °F 70.2 °F 29.69 in NNW 4.2 mph 23 mph 93.6% 0.04 in 30 W/m2
11:29 72 °F 70.1 °F 29.69 in NNW 5.1 mph 23 mph 93.6% 0.05 in 19 W/m2
11:34 72 °F 70.2 °F 29.68 in NNW 4.6 mph 23 mph 94% 0.08 in 33 W/m2
11:39 71.9 °F 70.1 °F 29.68 in NNW 6.1 mph 25 mph 94% 0.11 in 37 W/m2
11:44 71.8 °F 70 °F 29.68 in NNW 3.9 mph 25 mph 94% 0.13 in 40 W/m2
11:49 71.8 °F 70 °F 29.68 in NNW 4.4 mph 25 mph 94% 0.15 in 47 W/m2
11:54 71.8 °F 70 °F 29.67 in NW 5.4 mph 25 mph 94% 0.17 in 51 W/m2
11:59 71.8 °F 70 °F 29.67 in NW 5.2 mph 25 mph 94.1% 0.20 in 40 W/m2
12:00 71.8 °F 70.3 °F 29.66 in NW 2 mph 25 mph 95% 0.21 in 30 W/m2
12:09 71.7 °F 70.2 °F 29.66 in NW 5.8 mph 19 mph 95% 0.29 in 28 W/m2
12:14 71.6 °F 70.1 °F 29.66 in NNW 7.3 mph 21 mph 95% 0.33 in 23 W/m2
12:19 71.5 °F 70 °F 29.65 in NW 7.2 mph 21 mph 95% 0.36 in 23 W/m2
12:24 71.5 °F 70 °F 29.65 in NNW 6.3 mph 21 mph 95% 0.40 in 19 W/m2
12:29 71.4 °F 69.9 °F 29.65 in NW 7.7 mph 21 mph 95% 0.44 in 18 W/m2
12:34 71.4 °F 69.9 °F 29.64 in NW 6.4 mph 21 mph 95% 0.44 in 19 W/m2
12:39 71.3 °F 69.8 °F 29.64 in NW 8.4 mph 21 mph 95% 0.44 in 18 W/m2
12:44 71.3 °F 69.8 °F 29.63 in NW 8.4 mph 21 mph 95% 0.47 in 19 W/m2
12:49 71.3 °F 69.8 °F 29.63 in NNW 7.7 mph 21 mph 95% 0.48 in 19 W/m2
12:54 71.3 °F 69.8 °F 29.62 in NW 9.7 mph 26 mph 95% 0.50 in 19 W/m2
12:59 71.2 °F 69.7 °F 29.62 in NNW 9.2 mph 26 mph 95% 0.52 in 19 W/m2
13:04 71.2 °F 69.7 °F 29.61 in NNW 5 mph 26 mph 95% 0.52 in 19 W/m2
13:09 71.2 °F 69.7 °F 29.61 in NNW 5.4 mph 25 mph 95% 0.41 in 12 W/m2
13:14 71.2 °F 69.7 °F 29.61 in NNW 9.7 mph 26 mph 95% 0.44 in 18 W/m2
13:19 71.2 °F 69.7 °F 29.61 in NNW 8 mph 26 mph 95% 0.47 in 21 W/m2
13:24 71.2 °F 69.7 °F 29.60 in NNW 7.5 mph 26 mph 95% 0.51 in 21 W/m2
13:29 71.2 °F 69.7 °F 29.60 in NW 8.7 mph 26 mph 95% 0.57 in 18 W/m2
13:34 71.2 °F 69.7 °F 29.60 in NW 10.5 mph 30 mph 95% 0.57 in 18 W/m2
13:39 71.2 °F 69.7 °F 29.60 in NW 9.8 mph 30 mph 95% 0.46 in 19 W/m2
13:44 71.2 °F 69.7 °F 29.59 in NNW 10.7 mph 30 mph 95% 0.56 in 23 W/m2
13:49 71.1 °F 69.6 °F 29.59 in NW 8.3 mph 30 mph 95% 0.67 in 26 W/m2
13:54 71.1 °F 69.9 °F 29.58 in NNW 10 mph 30 mph 95.9% 0.76 in 33 W/m2
13:59 71.1 °F 69.9 °F 29.58 in NW 11.2 mph 30 mph 96% 0.80 in 53 W/m2
14:04 71.2 °F 70 °F 29.57 in NNW 9.2 mph 30 mph 96% 0.80 in 49 W/m2
14:09 71.2 °F 70 °F 29.57 in NW 9.9 mph 26 mph 96% 0.72 in 40 W/m2
14:14 71.2 °F 70 °F 29.57 in NNW 12.7 mph 26 mph 96% 0.75 in 39 W/m2
14:19 71.2 °F 70 °F 29.57 in NW 11.7 mph 26 mph 96% 0.78 in 49 W/m2
14:24 71.2 °F 70 °F 29.57 in NNW 7.6 mph 26 mph 96% 0.79 in 60 W/m2
14:29 71.2 °F 70 °F 29.56 in NW 10.1 mph 26 mph 96% 0.80 in 74 W/m2
14:34 71.3 °F 70.1 °F 29.55 in NNW 7 mph 26 mph 96% 0.80 in 79 W/m2
14:39 71.4 °F 70.2 °F 29.55 in NNW 7.6 mph 25 mph 96% 0.62 in 84 W/m2
14:44 71.4 °F 70.2 °F 29.55 in NNW 8.4 mph 25 mph 96% 0.66 in 102 W/m2
14:49 71.4 °F 70.2 °F 29.54 in NW 10.4 mph 28 mph 96% 0.68 in 120 W/m2
14:54 71.5 °F 70.3 °F 29.54 in NW 7.4 mph 28 mph 96% 0.70 in 120 W/m2
14:59 71.5 °F 70.3 °F 29.53 in NW 6.6 mph 29 mph 96% 0.73 in 111 W/m2
15:04 71.6 °F 70.4 °F 29.54 in NW 8.8 mph 29 mph 96% 0.73 in 120 W/m2
15:09 71.5 °F 70.3 °F 29.54 in NNW 9.4 mph 29 mph 96% 0.34 in 113 W/m2
15:14 71.5 °F 70.3 °F 29.53 in NNW 9.5 mph 29 mph 96% 0.38 in 84 W/m2
15:19 71.4 °F 70.2 °F 29.53 in NNW 6.6 mph 29 mph 96% 0.41 in 65 W/m2
15:24 71.4 °F 70.2 °F 29.53 in NW 7.2 mph 29 mph 96% 0.45 in 76 W/m2
15:29 71.3 °F 70.1 °F 29.53 in NNW 7.5 mph 29 mph 96% 0.47 in 49 W/m2
15:34 71.3 °F 70.1 °F 29.54 in NW 6.8 mph 29 mph 96% 0.47 in 46 W/m2
15:39 71.3 °F 70.1 °F 29.53 in NW 5.7 mph 26 mph 96% 0.40 in 39 W/m2
15:44 71.2 °F 70 °F 29.53 in NNW 7 mph 26 mph 96% 0.43 in 40 W/m2
15:49 71.2 °F 70 °F 29.53 in NW 7 mph 26 mph 96% 0.46 in 58 W/m2
15:54 71.2 °F 70 °F 29.53 in NNW 5.5 mph 26 mph 96% 0.49 in 70 W/m2
15:59 71.2 °F 70 °F 29.53 in NNW 5.2 mph 26 mph 96% 0.53 in 74 W/m2
16:00 71.2 °F 70 °F 29.52 in NNE 3 mph 26 mph 96% 0.53 in 69 W/m2
16:09 71.3 °F 70.1 °F 29.52 in NE 3.9 mph 10 mph 96% 0.43 in 69 W/m2
16:14 71.3 °F 70.1 °F 29.52 in NNW 4.8 mph 17 mph 96% 0.45 in 76 W/m2
16:19 71.3 °F 70.1 °F 29.52 in NW 5.7 mph 22 mph 96% 0.46 in 70 W/m2
16:24 71.2 °F 70 °F 29.52 in NW 5 mph 22 mph 96% 0.46 in 70 W/m2
16:29 71.2 °F 70 °F 29.52 in NW 6 mph 22 mph 96% 0.47 in 60 W/m2
16:34 71.2 °F 70 °F 29.52 in NW 3.8 mph 22 mph 96% 0.47 in 54 W/m2
16:39 71.3 °F 70.1 °F 29.52 in NW 3.3 mph 12 mph 96% 0.28 in 54 W/m2
16:44 71.3 °F 70.1 °F 29.52 in NW 5.9 mph 18 mph 96% 0.29 in 54 W/m2
16:49 71.3 °F 70.1 °F 29.52 in NW 3.5 mph 18 mph 96% 0.29 in 54 W/m2
16:54 71.3 °F 70.1 °F 29.51 in NW 3.2 mph 18 mph 96% 0.29 in 54 W/m2
16:59 71.4 °F 70.2 °F 29.51 in NW 1 mph 18 mph 96% 0.29 in 51 W/m2
17:04 71.4 °F 70.2 °F 29.52 in NNW 3.8 mph 18 mph 96% 0.29 in 42 W/m2
17:09 71.4 °F 70.2 °F 29.53 in NNW 2.8 mph 14 mph 96% 0.11 in 35 W/m2
17:14 71.4 °F 70.2 °F 29.53 in NNW 2.4 mph 15 mph 96% 0.11 in 30 W/m2
17:19 71.5 °F 70.3 °F 29.53 in NW 1.6 mph 15 mph 96% 0.12 in 23 W/m2
17:24 71.5 °F 70.3 °F 29.53 in NW 3.5 mph 15 mph 96% 0.12 in 25 W/m2
17:29 71.5 °F 70.3 °F 29.53 in West 0.7 mph 15 mph 96% 0.12 in 25 W/m2
17:34 71.5 °F 70.3 °F 29.53 in NW 0.9 mph 15 mph 96% 0.12 in 23 W/m2
17:39 71.6 °F 70.4 °F 29.54 in Calm   6 mph 96% 0.04 in 26 W/m2
17:44 71.7 °F 70.7 °F 29.54 in Calm   6 mph 96.9% 0.04 in 28 W/m2
17:49 71.7 °F 70.8 °F 29.54 in Calm   6 mph 97% 0.05 in 44 W/m2
17:54 71.9 °F 71 °F 29.54 in Calm   6 mph 97% 0.05 in 44 W/m2
17:59 71.9 °F 71.1 °F 29.54 in NNW 0.1 mph 6 mph 97% 0.05 in 35 W/m2
18:04 72.1 °F 71.2 °F 29.55 in Calm   6 mph 97% 0.05 in 32 W/m2
18:09 72.1 °F 71.2 °F 29.55 in Calm     97% 0.03 in 23 W/m2
18:14 72.2 °F 71.3 °F 29.56 in Calm     97% 0.03 in 21 W/m2
18:19 72.2 °F 71.3 °F 29.56 in Calm     97% 0.03 in 25 W/m2
18:24 72.2 °F 71.3 °F 29.56 in Calm     97% 0.03 in 18 W/m2
18:29 72.3 °F 71.4 °F 29.56 in Calm     97% 0.03 in 21 W/m2
18:34 72.3 °F 71.4 °F 29.56 in Calm     97% 0.03 in 25 W/m2
18:39 72.3 °F 71.4 °F 29.57 in Calm     97% 0.01 in 21 W/m2
18:44 72.2 °F 71 °F 29.58 in Calm     96.1% 0.01 in 16 W/m2
18:49 72.1 °F 70.9 °F 29.57 in Calm     96% 0.01 in 16 W/m2
18:54 72.1 °F 70.9 °F 29.57 in Calm     96% 0.01 in 16 W/m2
18:59 72 °F 70.8 °F 29.58 in Calm     96% 0.01 in 14 W/m2
19:04 72 °F 71 °F 29.58 in Calm     96.7% 0.01 in 12 W/m2
19:09 72 °F 71.1 °F 29.59 in Calm     97% 0.00 in 5 W/m2
19:14 72 °F 71.1 °F 29.59 in Calm     97% 0.00 in 5 W/m2
19:19 72 °F 71.1 °F 29.60 in Calm     97% 0.00 in 0 W/m2
19:24 71.9 °F 71 °F 29.60 in Calm     97% 0.00 in 0 W/m2
19:29 71.9 °F 71 °F 29.61 in Calm     97% 0.00 in 0 W/m2
19:34 71.9 °F 71 °F 29.61 in Calm     97% 0.00 in 0 W/m2
19:39 71.9 °F 71 °F 29.61 in Calm     97% 0.00 in 0 W/m2
19:44 71.9 °F 71 °F 29.62 in Calm     97% 0.00 in 0 W/m2
19:49 71.9 °F 71 °F 29.62 in Calm     97% 0.00 in 0 W/m2
19:54 71.9 °F 71 °F 29.63 in Calm     97% 0.00 in 0 W/m2
19:59 71.8 °F 70.9 °F 29.63 in Calm     97% 0.00 in 0 W/m2
20:00 71.8 °F 70.9 °F 29.63 in Calm     97% 0.00 in 0 W/m2
20:09 71.8 °F 70.9 °F 29.64 in Calm     97% 0.00 in 0 W/m2
20:14 71.9 °F 71 °F 29.64 in Calm     97% 0.00 in 0 W/m2
20:19 71.9 °F 71 °F 29.65 in NNW 0.1 mph 2 mph 97% 0.00 in 0 W/m2
20:24 71.9 °F 71 °F 29.65 in Calm   2 mph 97% 0.00 in 0 W/m2
20:29 71.9 °F 71 °F 29.65 in Calm   2 mph 97% 0.00 in 0 W/m2
20:34 72 °F 71.1 °F 29.66 in Calm   2 mph 97% 0.00 in 0 W/m2
20:39 72 °F 71.1 °F 29.66 in West 0.3 mph 3 mph 97% 0.01 in 0 W/m2
20:44 71.9 °F 71.1 °F 29.66 in WSW 0.1 mph 3 mph 97% 0.01 in 0 W/m2
20:49 71.9 °F 71 °F 29.67 in WSW 0.1 mph 3 mph 97% 0.01 in 0 W/m2
20:54 71.9 °F 71 °F 29.67 in Calm   3 mph 97% 0.01 in 0 W/m2
20:59 71.9 °F 71 °F 29.67 in Calm   3 mph 97% 0.01 in 0 W/m2
21:04 71.9 °F 71 °F 29.68 in Calm   3 mph 97% 0.01 in 0 W/m2
21:09 71.9 °F 71 °F 29.68 in SSW 0.1 mph 3 mph 97% 0.01 in 0 W/m2
21:14 71.9 °F 71 °F 29.68 in Calm   3 mph 97% 0.01 in 0 W/m2
21:19 71.9 °F 71 °F 29.69 in SSW 0.3 mph 4 mph 97% 0.01 in 0 W/m2
21:24 71.9 °F 71 °F 29.69 in Calm   4 mph 97% 0.01 in 0 W/m2
21:29 71.9 °F 71 °F 29.69 in SSW 0.4 mph 4 mph 97% 0.01 in 0 W/m2
21:34 71.8 °F 70.9 °F 29.69 in Calm   4 mph 97% 0.01 in 0 W/m2
21:39 71.8 °F 70.9 °F 29.70 in SSW 0.1 mph 2 mph 97% 0.01 in 0 W/m2
21:44 71.8 °F 70.9 °F 29.70 in SSW 0.4 mph 3 mph 97% 0.01 in 0 W/m2
21:49 71.7 °F 70.8 °F 29.70 in Calm   3 mph 97% 0.01 in 0 W/m2
21:54 71.7 °F 70.8 °F 29.71 in Calm   3 mph 97% 0.01 in 0 W/m2
21:59 71.6 °F 70.7 °F 29.71 in Calm   3 mph 97% 0.01 in 0 W/m2
22:04 71.5 °F 70.6 °F 29.71 in Calm   3 mph 97% 0.01 in 0 W/m2
22:09 71.4 °F 70.6 °F 29.72 in SSW 0.2 mph 3 mph 97% 0.00 in 0 W/m2
22:14 71.4 °F 70.5 °F 29.72 in South 1.1 mph 6 mph 97% 0.00 in 0 W/m2
22:19 71.1 °F 70.2 °F 29.73 in South 0.5 mph 6 mph 97% 0.00 in 0 W/m2
22:24 70.7 °F 69.9 °F 29.73 in South 0.6 mph 6 mph 97% 0.00 in 0 W/m2
22:29 70.4 °F 69.5 °F 29.73 in South 0.7 mph 6 mph 97% 0.00 in 0 W/m2
22:34 70.1 °F 68.9 °F 29.73 in SW 0.8 mph 6 mph 96% 0.00 in 0 W/m2
22:39 69.9 °F 69 °F 29.74 in SSW 0.4 mph 4 mph 96.8% 0.00 in 0 W/m2
22:44 69.8 °F 68.9 °F 29.74 in Calm   4 mph 97% 0.00 in 0 W/m2
22:49 69.7 °F 68.8 °F 29.74 in SSW 0.2 mph 4 mph 97% 0.00 in 0 W/m2
22:54 69.7 °F 68.8 °F 29.75 in SSW 0.1 mph 4 mph 97% 0.00 in 0 W/m2
22:59 69.6 °F 68.4 °F 29.75 in SSW 0.1 mph 4 mph 96% 0.00 in 0 W/m2
23:04 69.5 °F 68.3 °F 29.75 in Calm   4 mph 96% 0.00 in 0 W/m2
23:09 69.4 °F 68.2 °F 29.75 in Calm     96.1% 0.00 in 0 W/m2
23:14 69.4 °F 68.5 °F 29.75 in Calm     97% 0.00 in 0 W/m2
23:19 69.4 °F 68.5 °F 29.75 in Calm     97% 0.00 in 0 W/m2
23:24 69.4 °F 68.5 °F 29.75 in Calm     97% 0.00 in 0 W/m2
23:29 69.4 °F 68.5 °F 29.75 in Calm     97% 0.00 in 0 W/m2
23:34 69.4 °F 68.5 °F 29.75 in Calm     97% 0.00 in 0 W/m2
23:39 69.3 °F 68.4 °F 29.75 in Calm     97% 0.00 in 0 W/m2
23:44 69.3 °F 68.4 °F 29.76 in Calm     97% 0.00 in 0 W/m2
23:49 69.2 °F 68.4 °F 29.76 in Calm     97% 0.00 in 0 W/m2
23:54 69.2 °F 68.3 °F 29.76 in Calm     97% 0.00 in 0 W/m2
23:59 69.1 °F 68.2 °F 29.77 in Calm     97% 0.00 in 0 W/m2
Hartford County Weather
Compliments of Weather Underground - 2 mb